createdAt,value
2022-09-06T00:01:14.240Z,2.65
2022-09-06T00:03:46.858Z,1.98
2022-09-06T00:06:15.926Z,2.80
2022-09-06T00:08:44.477Z,2.55
2022-09-06T00:11:11.746Z,2.40
2022-09-06T00:13:38.384Z,2.85
2022-09-06T00:16:18.096Z,2.47
2022-09-06T00:18:45.435Z,2.83
2022-09-06T00:21:24.785Z,2.17
2022-09-06T00:23:52.169Z,2.83
2022-09-06T00:26:19.401Z,2.60
2022-09-06T00:28:46.059Z,2.78
2022-09-06T00:31:15.604Z,2.70
2022-09-06T00:33:42.381Z,2.92
2022-09-06T00:36:09.722Z,3.42
2022-09-06T00:38:36.576Z,2.63
2022-09-06T00:41:08.674Z,3.78
2022-09-06T00:43:35.225Z,2.97
2022-09-06T00:46:03.233Z,4.00
2022-09-06T00:48:29.959Z,3.35
2022-09-06T00:51:02.175Z,3.55
2022-09-06T00:53:30.609Z,3.75
2022-09-06T00:55:57.772Z,4.47
2022-09-06T00:58:25.285Z,4.38
2022-09-06T01:00:51.854Z,5.05
2022-09-06T01:03:19.437Z,4.90
2022-09-06T01:05:54.782Z,4.43
2022-09-06T01:08:39.829Z,3.90
2022-09-06T01:11:08.925Z,4.55
2022-09-06T01:13:41.200Z,5.18
2022-09-06T01:16:13.853Z,5.40
2022-09-06T01:19:07.625Z,5.57
2022-09-06T01:22:08.563Z,5.75
2022-09-06T01:24:45.395Z,6.63
2022-09-06T01:27:39.336Z,5.40
2022-09-06T01:30:14.535Z,6.45
2022-09-06T01:33:20.303Z,4.10
2022-09-06T01:35:56.166Z,4.53
2022-09-06T01:38:22.926Z,4.63
2022-09-06T01:40:49.350Z,4.80
2022-09-06T01:43:26.173Z,4.22
2022-09-06T01:45:55.467Z,3.42
2022-09-06T01:48:40.347Z,3.33
2022-09-06T01:51:30.321Z,3.72
2022-09-06T01:54:27.375Z,3.45
2022-09-06T01:57:22.612Z,3.40
2022-09-06T02:00:11.639Z,3.58
2022-09-06T02:03:13.500Z,3.70
2022-09-06T02:05:49.639Z,3.00
2022-09-06T02:08:26.028Z,3.17
2022-09-06T02:11:00.591Z,3.05
2022-09-06T02:13:30.128Z,2.95
2022-09-06T02:16:08.729Z,3.45
2022-09-06T02:18:52.804Z,3.40
2022-09-06T02:21:29.492Z,2.47
2022-09-06T02:24:00.458Z,2.80
2022-09-06T02:26:30.527Z,3.67
2022-09-06T02:28:57.540Z,3.33
2022-09-06T02:31:29.474Z,3.10
2022-09-06T02:33:56.776Z,2.67
2022-09-06T02:36:23.683Z,2.88
2022-09-06T02:38:54.180Z,2.90
2022-09-06T02:41:24.311Z,2.63
2022-09-06T02:43:50.804Z,2.80
2022-09-06T02:46:17.329Z,3.08
2022-09-06T02:48:43.742Z,3.28
2022-09-06T02:51:10.586Z,3.15
2022-09-06T02:53:37.022Z,3.65
2022-09-06T02:56:06.194Z,3.90
2022-09-06T02:58:32.707Z,3.33
2022-09-06T03:00:59.360Z,3.13
2022-09-06T03:03:27.331Z,3.67
2022-09-06T03:05:54.954Z,3.03
2022-09-06T03:08:25.576Z,3.33
2022-09-06T03:10:54.695Z,4.47
2022-09-06T03:13:21.216Z,3.88
2022-09-06T03:15:56.546Z,3.55
2022-09-06T03:18:28.234Z,3.45
2022-09-06T03:20:55.781Z,3.50
2022-09-06T03:23:24.698Z,3.78
2022-09-06T03:25:51.832Z,3.30
2022-09-06T03:28:19.457Z,3.65
2022-09-06T03:30:47.591Z,3.78
2022-09-06T03:33:15.126Z,3.92
2022-09-06T03:35:54.360Z,3.13
2022-09-06T03:38:21.666Z,4.43
2022-09-06T03:40:50.220Z,3.50
2022-09-06T03:43:29.220Z,4.28
2022-09-06T03:45:58.337Z,3.33
2022-09-06T03:48:27.094Z,3.75
2022-09-06T03:50:59.400Z,3.55
2022-09-06T03:53:32.734Z,3.35
2022-09-06T03:55:59.553Z,3.25
2022-09-06T03:58:30.509Z,3.58
2022-09-06T04:01:08.074Z,3.75
2022-09-06T04:03:35.263Z,3.83
2022-09-06T04:06:02.161Z,3.88
2022-09-06T04:08:29.187Z,3.63
2022-09-06T04:10:56.752Z,3.55
2022-09-06T04:13:23.828Z,3.85
2022-09-06T04:15:50.826Z,3.20
2022-09-06T04:18:17.236Z,2.85
2022-09-06T04:20:45.857Z,3.70
2022-09-06T04:23:13.474Z,3.15
2022-09-06T04:25:40.778Z,4.45
2022-09-06T04:28:07.362Z,3.35
2022-09-06T04:30:33.737Z,3.10
2022-09-06T04:33:00.123Z,3.55
2022-09-06T04:35:26.562Z,4.07
2022-09-06T04:37:53.065Z,3.60
2022-09-06T04:40:19.496Z,3.60
2022-09-06T04:42:45.957Z,3.65
2022-09-06T04:45:12.498Z,2.97
2022-09-06T04:47:39.057Z,3.65
2022-09-06T04:50:06.302Z,3.40
2022-09-06T04:52:32.686Z,3.70
2022-09-06T04:54:59.078Z,3.63
2022-09-06T04:57:34.571Z,3.55
2022-09-06T05:00:04.000Z,4.15
2022-09-06T05:02:30.376Z,3.95
2022-09-06T05:04:57.158Z,4.18
2022-09-06T05:07:23.560Z,3.40
2022-09-06T05:09:49.955Z,4.72
2022-09-06T05:12:16.326Z,4.07
2022-09-06T05:14:42.777Z,4.80
2022-09-06T05:17:09.179Z,4.70
2022-09-06T05:19:35.918Z,4.63
2022-09-06T05:22:02.364Z,5.38
2022-09-06T05:24:29.285Z,6.38
2022-09-06T05:26:55.693Z,5.28
2022-09-06T05:29:22.221Z,5.13
2022-09-06T05:31:48.691Z,6.15
2022-09-06T05:34:15.276Z,6.35
2022-09-06T05:36:42.034Z,6.88
2022-09-06T05:39:08.570Z,6.50
2022-09-06T05:41:34.969Z,7.40
2022-09-06T05:44:01.506Z,6.75
2022-09-06T05:46:27.871Z,9.02
2022-09-06T05:48:55.633Z,6.72
2022-09-06T05:51:22.161Z,7.25
2022-09-06T05:53:48.649Z,7.65
2022-09-06T05:56:15.977Z,8.20
2022-09-06T05:58:42.731Z,7.60
2022-09-06T06:01:27.636Z,7.40
2022-09-06T06:03:59.122Z,7.82
2022-09-06T06:06:29.248Z,8.07
2022-09-06T06:08:56.289Z,7.63
2022-09-06T06:11:23.611Z,7.40
2022-09-06T06:13:50.815Z,7.15
2022-09-06T06:16:18.882Z,6.45
2022-09-06T06:18:49.941Z,6.32
2022-09-06T06:21:22.815Z,5.80
2022-09-06T06:24:03.370Z,6.57
2022-09-06T06:26:32.612Z,6.82
2022-09-06T06:29:01.885Z,7.03
2022-09-06T06:31:35.532Z,5.63
2022-09-06T06:34:04.733Z,6.00
2022-09-06T06:36:33.730Z,6.05
2022-09-06T06:39:01.549Z,5.40
2022-09-06T06:41:29.902Z,6.00
2022-09-06T06:43:59.021Z,5.75
2022-09-06T06:46:27.472Z,6.03
2022-09-06T06:48:55.517Z,6.60
2022-09-06T06:51:24.863Z,6.72
2022-09-06T06:53:51.605Z,6.25
2022-09-06T06:56:22.115Z,6.38
2022-09-06T06:58:50.706Z,7.70
2022-09-06T07:01:19.782Z,5.70
2022-09-06T07:03:46.972Z,6.28
2022-09-06T07:06:14.526Z,6.13
2022-09-06T07:08:41.709Z,6.32
2022-09-06T07:11:10.444Z,5.85
2022-09-06T07:13:37.373Z,6.05
2022-09-06T07:16:09.108Z,6.97
2022-09-06T07:18:37.623Z,5.88
2022-09-06T07:24:09.391Z,5.90
2022-09-06T07:26:38.202Z,5.47
2022-09-06T07:29:06.051Z,6.15
2022-09-06T07:34:20.449Z,6.22
2022-09-06T07:36:47.114Z,5.90
2022-09-06T07:39:14.037Z,5.03
2022-09-06T07:41:40.451Z,5.90
2022-09-06T07:44:06.803Z,4.85
2022-09-06T07:46:33.499Z,4.72
2022-09-06T07:49:00.299Z,5.00
2022-09-06T07:51:26.785Z,4.57
2022-09-06T07:54:13.319Z,4.65
2022-09-06T07:56:44.736Z,5.00
2022-09-06T07:59:11.209Z,4.63
2022-09-06T08:01:39.101Z,4.25
2022-09-06T08:04:09.447Z,4.10
2022-09-06T08:09:25.169Z,3.42
2022-09-06T08:11:52.614Z,3.67
2022-09-06T08:14:19.922Z,3.53
2022-09-06T08:16:46.554Z,3.55
2022-09-06T08:19:13.163Z,3.00
2022-09-06T08:21:39.836Z,3.00
2022-09-06T08:24:08.346Z,3.03
2022-09-06T08:26:36.910Z,3.35
2022-09-06T08:29:06.794Z,3.22
2022-09-06T08:31:35.228Z,3.10
2022-09-06T08:34:02.259Z,2.80
2022-09-06T08:36:30.545Z,3.30
2022-09-06T08:39:01.789Z,2.47
2022-09-06T08:41:40.269Z,2.60
2022-09-06T08:47:12.572Z,3.47
2022-09-06T08:49:46.031Z,2.30
2022-09-06T08:52:34.614Z,2.28
2022-09-06T08:55:21.834Z,3.38
2022-09-06T08:58:07.006Z,2.88
2022-09-06T09:00:36.454Z,2.67
2022-09-06T09:03:19.477Z,2.53
2022-09-06T09:05:50.225Z,2.40
2022-09-06T09:10:59.147Z,2.88
2022-09-06T09:13:34.433Z,2.05
2022-09-06T09:16:01.323Z,2.30
2022-09-06T09:18:31.965Z,2.38
2022-09-06T09:20:59.407Z,2.53
2022-09-06T09:23:26.051Z,2.33
2022-09-06T09:25:59.459Z,2.60
2022-09-06T09:28:26.066Z,2.42
2022-09-06T09:30:56.822Z,2.70
2022-09-06T09:35:56.884Z,2.20
2022-09-06T09:38:30.054Z,1.98
2022-09-06T09:41:08.206Z,2.22
2022-09-06T09:43:38.146Z,2.05
2022-09-06T09:46:24.525Z,2.00
2022-09-06T09:49:11.420Z,2.15
2022-09-06T09:51:43.673Z,2.60
2022-09-06T09:54:13.472Z,2.40
2022-09-06T09:56:45.853Z,4.00
2022-09-06T09:59:27.927Z,3.45
2022-09-06T10:02:06.436Z,3.42
2022-09-06T10:07:22.863Z,5.25
2022-09-06T10:09:58.230Z,3.50
2022-09-06T10:12:30.508Z,3.58
2022-09-06T10:14:57.727Z,3.72
2022-09-06T10:17:31.228Z,4.65
2022-09-06T10:20:07.656Z,4.30
2022-09-06T10:22:51.645Z,4.85
2022-09-06T10:25:37.954Z,3.63
2022-09-06T10:28:41.644Z,3.85
2022-09-06T10:31:39.967Z,4.00
2022-09-06T10:34:33.220Z,3.50
2022-09-06T10:37:27.498Z,2.95
2022-09-06T10:40:09.757Z,2.70
2022-09-06T10:42:54.076Z,3.22
2022-09-06T10:45:33.161Z,3.90
2022-09-06T10:48:21.313Z,3.20
2022-09-06T10:51:12.818Z,2.55
2022-09-06T10:53:48.389Z,3.05
2022-09-06T10:56:27.978Z,2.20
2022-09-06T11:02:15.534Z,2.80
2022-09-06T11:07:36.773Z,3.10
2022-09-06T11:10:27.051Z,2.97
2022-09-06T11:13:10.420Z,2.67
2022-09-06T11:15:47.576Z,2.70
2022-09-06T11:18:32.564Z,2.97
2022-09-06T11:21:28.257Z,3.33
2022-09-06T11:24:13.933Z,2.90
2022-09-06T11:27:14.586Z,2.67
2022-09-06T11:29:44.766Z,2.90
2022-09-06T11:32:44.697Z,3.22
2022-09-06T11:35:23.594Z,2.58
2022-09-06T11:38:02.687Z,3.55
2022-09-06T11:41:13.279Z,3.50
2022-09-06T11:43:50.618Z,3.83
2022-09-06T11:46:35.485Z,2.85
2022-09-06T11:49:03.794Z,3.30
2022-09-06T11:51:35.525Z,4.03
2022-09-06T11:54:31.579Z,4.40
2022-09-06T11:57:21.600Z,5.13
2022-09-06T11:59:52.337Z,4.13
2022-09-06T12:02:38.340Z,4.38
2022-09-06T12:05:07.192Z,3.35
2022-09-06T12:07:35.655Z,4.68
2022-09-06T12:10:22.829Z,4.97
2022-09-06T12:12:52.621Z,5.60
2022-09-06T12:15:44.168Z,4.50
2022-09-06T12:18:48.344Z,4.30
2022-09-06T12:21:46.163Z,5.93
2022-09-06T12:24:34.471Z,5.57
2022-09-06T12:27:18.477Z,5.20
2022-09-06T12:29:58.743Z,4.03
2022-09-06T12:32:31.701Z,5.22
2022-09-06T12:37:54.198Z,6.32
2022-09-06T12:40:22.940Z,6.13
2022-09-06T12:42:51.162Z,7.15
2022-09-06T12:45:21.947Z,5.28
2022-09-06T12:47:52.148Z,4.53
2022-09-06T12:50:34.646Z,6.75
2022-09-06T12:53:03.160Z,4.88
2022-09-06T12:55:37.085Z,6.18
2022-09-06T12:58:07.565Z,6.10
2022-09-06T13:00:51.787Z,6.00
2022-09-06T13:03:41.855Z,6.07
2022-09-06T13:06:12.607Z,5.37
2022-09-06T13:11:18.076Z,7.95
2022-09-06T13:13:48.784Z,7.18
2022-09-06T13:16:27.337Z,6.47
2022-09-06T13:18:54.487Z,5.32
2022-09-06T13:21:32.762Z,5.05
2022-09-06T13:24:03.890Z,4.80
2022-09-06T13:26:38.729Z,5.00
2022-09-06T13:29:17.460Z,5.03
2022-09-06T13:31:48.110Z,4.75
2022-09-06T13:34:26.638Z,5.35
2022-09-06T13:37:04.120Z,6.72
2022-09-06T13:39:35.832Z,5.18
2022-09-06T13:42:11.671Z,4.65
2022-09-06T13:44:39.629Z,4.43
2022-09-06T13:47:06.203Z,3.58
2022-09-06T13:49:32.988Z,4.15
2022-09-06T13:52:02.468Z,4.80
2022-09-06T13:54:30.670Z,3.70
2022-09-06T13:56:57.853Z,4.32
2022-09-06T13:59:27.512Z,3.55
2022-09-06T14:02:15.909Z,2.03
2022-09-06T14:04:46.102Z,3.70
2022-09-06T14:07:12.567Z,3.60
2022-09-06T14:09:39.045Z,4.40
2022-09-06T14:12:06.840Z,5.15
2022-09-06T14:14:34.102Z,4.18
2022-09-06T14:17:00.760Z,4.03
2022-09-06T14:19:27.209Z,5.18
2022-09-06T14:21:55.004Z,5.00
2022-09-06T14:24:21.756Z,5.50
2022-09-06T14:26:48.838Z,4.82
2022-09-06T14:29:16.560Z,4.90
2022-09-06T14:31:42.992Z,4.25
2022-09-06T14:34:11.800Z,5.03
2022-09-06T14:36:38.486Z,4.93
2022-09-06T14:39:04.991Z,5.28
2022-09-06T14:41:31.565Z,4.63
2022-09-06T14:43:59.168Z,4.38
2022-09-06T14:46:27.640Z,6.13
2022-09-06T14:49:02.187Z,7.53
2022-09-06T14:51:30.157Z,6.43
2022-09-06T14:54:05.981Z,7.30
2022-09-06T14:56:32.491Z,6.78
2022-09-06T14:59:00.004Z,5.68
2022-09-06T15:01:37.163Z,7.75
2022-09-06T15:04:26.222Z,5.75
2022-09-06T15:06:52.603Z,6.47
2022-09-06T15:09:19.299Z,5.13
2022-09-06T15:11:51.204Z,4.72
2022-09-06T15:14:22.745Z,4.80
2022-09-06T15:16:55.555Z,3.65
2022-09-06T15:19:27.520Z,4.15
2022-09-06T15:21:55.406Z,5.15
2022-09-06T15:24:22.430Z,5.70
2022-09-06T15:26:49.517Z,5.82
2022-09-06T15:29:16.136Z,4.75
2022-09-06T15:31:43.300Z,4.63
2022-09-06T15:34:11.431Z,3.75
2022-09-06T15:36:38.196Z,3.40
2022-09-06T15:39:05.763Z,3.50
2022-09-06T15:41:35.515Z,2.78
2022-09-06T15:44:07.909Z,3.25
2022-09-06T15:46:51.241Z,3.00
2022-09-06T15:49:27.577Z,2.50
2022-09-06T15:51:56.191Z,2.22
2022-09-06T15:54:41.263Z,2.30
2022-09-06T15:57:08.345Z,2.17
2022-09-06T15:59:34.709Z,2.55
2022-09-06T16:02:01.139Z,2.80
2022-09-06T16:04:27.818Z,2.00
2022-09-06T16:06:54.256Z,2.38
2022-09-06T16:09:20.822Z,1.73
2022-09-06T16:11:48.666Z,1.90
2022-09-06T16:14:16.340Z,2.50
2022-09-06T16:16:43.595Z,2.50
2022-09-06T16:19:12.231Z,2.60
2022-09-06T16:21:40.642Z,1.80
2022-09-06T16:24:12.871Z,2.40
2022-09-06T16:26:42.164Z,1.95
2022-09-06T16:29:13.273Z,2.17
2022-09-06T16:34:10.974Z,2.53
2022-09-06T16:36:37.767Z,3.08
2022-09-06T16:39:05.502Z,2.38
2022-09-06T16:41:39.367Z,3.53
2022-09-06T16:44:07.258Z,3.30
2022-09-06T16:46:33.890Z,3.92
2022-09-06T16:49:02.768Z,3.58
2022-09-06T16:51:31.265Z,3.17
2022-09-06T16:53:58.835Z,3.20
2022-09-06T16:56:28.355Z,3.28
2022-09-06T16:58:57.152Z,4.05
2022-09-06T17:01:25.379Z,3.05
2022-09-06T17:03:52.674Z,3.50
2022-09-06T17:06:20.257Z,3.10
2022-09-06T17:08:47.361Z,3.28
2022-09-06T17:11:16.670Z,2.58
2022-09-06T17:13:45.533Z,3.38
2022-09-06T17:16:31.311Z,3.47
2022-09-06T17:18:59.582Z,3.00
2022-09-06T17:21:26.163Z,3.45
2022-09-06T17:23:53.011Z,3.13
2022-09-06T17:26:21.467Z,3.22
2022-09-06T17:28:49.726Z,3.30
2022-09-06T17:31:20.980Z,3.00
2022-09-06T17:33:50.369Z,3.15
2022-09-06T17:36:24.561Z,2.65
2022-09-06T17:38:53.622Z,2.72
2022-09-06T17:41:27.463Z,3.20
2022-09-06T17:43:57.269Z,4.03
2022-09-06T17:46:28.429Z,3.25
2022-09-06T17:48:56.078Z,3.40
2022-09-06T17:51:23.277Z,3.20
2022-09-06T17:53:50.206Z,3.60
2022-09-06T17:56:18.229Z,3.28
2022-09-06T17:59:17.509Z,3.30
2022-09-06T18:01:45.980Z,3.63
2022-09-06T18:04:14.322Z,3.53
2022-09-06T18:06:42.287Z,4.03
2022-09-06T18:09:17.865Z,3.25
2022-09-06T18:11:48.087Z,3.45
2022-09-06T18:14:18.157Z,2.67
2022-09-06T18:16:47.179Z,3.28
2022-09-06T18:19:14.497Z,3.03
2022-09-06T18:21:41.866Z,3.35
2022-09-06T18:24:10.193Z,2.63
2022-09-06T18:26:37.420Z,4.32
2022-09-06T18:29:07.204Z,3.03
2022-09-06T18:31:36.208Z,2.40
2022-09-06T18:34:02.756Z,2.30
2022-09-06T18:36:32.264Z,2.33
2022-09-06T18:39:04.126Z,3.13
2022-09-06T18:41:52.370Z,2.67
2022-09-06T18:44:19.015Z,2.75
2022-09-06T18:46:45.509Z,2.30
2022-09-06T18:49:14.232Z,2.08
2022-09-06T18:51:41.275Z,2.08
2022-09-06T18:54:08.176Z,2.30
2022-09-06T18:56:43.906Z,2.38
2022-09-06T18:59:11.458Z,2.50
2022-09-06T19:01:38.310Z,1.90
2022-09-06T19:04:07.284Z,2.38
2022-09-06T19:06:35.672Z,2.83
2022-09-06T19:09:06.075Z,2.90
2022-09-06T19:11:33.165Z,2.38
2022-09-06T19:14:00.403Z,2.63
2022-09-06T19:16:28.908Z,2.40
2022-09-06T19:18:56.910Z,2.55
2022-09-06T19:21:25.366Z,2.65
2022-09-06T19:24:01.492Z,2.95
2022-09-06T19:26:31.624Z,2.95
2022-09-06T19:29:01.133Z,3.50
2022-09-06T19:31:30.839Z,2.80
2022-09-06T19:33:58.540Z,2.92
2022-09-06T19:36:27.251Z,3.70
2022-09-06T19:39:06.047Z,3.33
2022-09-06T19:41:37.846Z,3.15
2022-09-06T19:44:09.183Z,3.47
2022-09-06T19:49:08.255Z,2.90
2022-09-06T19:51:40.898Z,3.10
2022-09-06T19:54:07.581Z,3.22
2022-09-06T19:56:38.030Z,3.38
2022-09-06T19:59:10.134Z,3.70
2022-09-06T20:01:41.735Z,3.33
2022-09-06T20:04:11.153Z,3.60
2022-09-06T20:06:38.916Z,3.38
2022-09-06T20:09:08.561Z,3.22
2022-09-06T20:11:46.517Z,3.60
2022-09-06T20:14:13.770Z,3.33
2022-09-06T20:16:42.395Z,2.97
2022-09-06T20:19:12.314Z,3.42
2022-09-06T20:21:39.015Z,2.75
2022-09-06T20:24:05.752Z,3.00
2022-09-06T20:26:32.232Z,2.90
2022-09-06T20:29:01.695Z,3.22
2022-09-06T20:31:30.350Z,3.50
2022-09-06T20:33:59.349Z,3.50
2022-09-06T20:36:26.094Z,4.15
2022-09-06T20:38:56.141Z,3.55
2022-09-06T20:41:24.670Z,3.80
2022-09-06T20:43:53.327Z,6.25
2022-09-06T20:46:22.679Z,5.28
2022-09-06T20:48:49.664Z,6.50
2022-09-06T20:51:20.921Z,5.60
2022-09-06T20:53:52.877Z,5.10
2022-09-06T20:56:22.189Z,5.20
2022-09-06T20:58:54.613Z,5.25
2022-09-06T21:01:25.261Z,6.07
2022-09-06T21:03:55.526Z,6.13
2022-09-06T21:06:24.727Z,5.63
2022-09-06T21:08:54.762Z,5.35
2022-09-06T21:11:22.062Z,7.22
2022-09-06T21:13:51.049Z,5.40
2022-09-06T21:16:23.986Z,6.53
2022-09-06T21:18:52.938Z,6.00
2022-09-06T21:21:19.881Z,6.97
2022-09-06T21:23:46.407Z,6.68
2022-09-06T21:26:16.294Z,7.28
2022-09-06T21:28:44.703Z,7.97
2022-09-06T21:31:13.827Z,7.18
2022-09-06T21:33:43.583Z,7.53
2022-09-06T21:36:12.999Z,8.55
2022-09-06T21:38:43.387Z,8.50
2022-09-06T21:41:11.290Z,8.35
2022-09-06T21:43:38.461Z,8.38
2022-09-06T21:46:12.921Z,9.40
2022-09-06T21:48:42.444Z,9.00
2022-09-06T21:51:11.325Z,9.30
2022-09-06T21:53:37.755Z,8.73
2022-09-06T21:56:05.199Z,10.63
2022-09-06T21:58:37.486Z,8.18
2022-09-06T22:01:12.222Z,7.40
2022-09-06T22:03:40.614Z,7.03
2022-09-06T22:06:16.112Z,7.38
2022-09-06T22:08:43.786Z,6.30
2022-09-06T22:11:22.237Z,6.82
2022-09-06T22:13:52.168Z,5.70
2022-09-06T22:16:22.520Z,6.40
2022-09-06T22:18:49.936Z,11.88
2022-09-06T22:21:22.845Z,8.00
2022-09-06T22:23:50.575Z,7.32
2022-09-06T22:26:17.925Z,7.55
2022-09-06T22:28:44.483Z,12.82
2022-09-06T22:31:11.160Z,8.05
2022-09-06T22:33:37.678Z,4.60
2022-09-06T22:36:05.357Z,2.78
2022-09-06T22:38:33.361Z,2.55
2022-09-06T22:41:01.214Z,3.85
2022-09-06T22:43:35.979Z,4.97
2022-09-06T22:46:23.424Z,5.70
2022-09-06T22:48:51.646Z,6.40
2022-09-06T22:51:18.182Z,5.32
2022-09-06T22:53:44.774Z,5.13
2022-09-06T22:56:11.481Z,5.53
2022-09-06T22:58:40.946Z,9.88
2022-09-06T23:01:10.337Z,9.35
2022-09-06T23:03:37.938Z,14.00
2022-09-06T23:06:05.517Z,6.43
2022-09-06T23:08:33.645Z,5.00
2022-09-06T23:11:06.342Z,3.95
2022-09-06T23:13:33.324Z,4.68
2022-09-06T23:16:12.974Z,3.92
2022-09-06T23:18:40.115Z,3.97
2022-09-06T23:21:13.004Z,7.63
2022-09-06T23:23:42.532Z,2.67
2022-09-06T23:26:11.519Z,2.90
2022-09-06T23:28:39.005Z,4.00
2022-09-06T23:31:08.319Z,4.50
2022-09-06T23:33:36.175Z,2.40
2022-09-06T23:36:07.657Z,2.63
2022-09-06T23:38:35.238Z,2.55
2022-09-06T23:41:02.235Z,2.78
2022-09-06T23:43:28.704Z,3.03
2022-09-06T23:45:55.382Z,2.15
2022-09-06T23:48:22.414Z,2.63
2022-09-06T23:50:49.090Z,2.95
2022-09-06T23:53:17.499Z,3.72
2022-09-06T23:55:44.660Z,2.20
2022-09-06T23:58:12.102Z,2.35
